sensor_id;sensor_type;location;lat;lon;timestamp;P1;durP1;ratioP1;P2;durP2;ratioP2
4563;SDS011;2294;51.818;8.484;2023-04-06T00:00:23;9.00;;;5.30;;
4563;SDS011;2294;51.818;8.484;2023-04-06T00:02:51;21.77;;;5.80;;
4563;SDS011;2294;51.818;8.484;2023-04-06T00:05:18;5.63;;;4.93;;
4563;SDS011;2294;51.818;8.484;2023-04-06T00:07:45;9.37;;;5.87;;
4563;SDS011;2294;51.818;8.484;2023-04-06T00:10:12;8.90;;;6.23;;
4563;SDS011;2294;51.818;8.484;2023-04-06T00:12:39;7.20;;;5.83;;
4563;SDS011;2294;51.818;8.484;2023-04-06T00:15:07;7.93;;;6.40;;
4563;SDS011;2294;51.818;8.484;2023-04-06T00:17:36;11.50;;;6.00;;
4563;SDS011;2294;51.818;8.484;2023-04-06T00:20:03;10.17;;;5.40;;
4563;SDS011;2294;51.818;8.484;2023-04-06T00:22:31;11.10;;;6.20;;
4563;SDS011;2294;51.818;8.484;2023-04-06T00:24:58;8.17;;;5.63;;
4563;SDS011;2294;51.818;8.484;2023-04-06T00:27:25;8.00;;;6.53;;
4563;SDS011;2294;51.818;8.484;2023-04-06T00:29:52;6.30;;;5.63;;
4563;SDS011;2294;51.818;8.484;2023-04-06T00:32:19;11.60;;;6.20;;
4563;SDS011;2294;51.818;8.484;2023-04-06T00:34:48;8.73;;;6.07;;
4563;SDS011;2294;51.818;8.484;2023-04-06T00:37:15;9.90;;;6.10;;
4563;SDS011;2294;51.818;8.484;2023-04-06T00:39:42;6.83;;;5.60;;
4563;SDS011;2294;51.818;8.484;2023-04-06T00:42:10;9.60;;;6.27;;
4563;SDS011;2294;51.818;8.484;2023-04-06T00:44:39;8.30;;;6.23;;
4563;SDS011;2294;51.818;8.484;2023-04-06T00:47:06;7.20;;;5.90;;
4563;SDS011;2294;51.818;8.484;2023-04-06T00:49:33;8.07;;;5.90;;
4563;SDS011;2294;51.818;8.484;2023-04-06T00:52:02;7.83;;;5.87;;
4563;SDS011;2294;51.818;8.484;2023-04-06T00:54:29;8.70;;;6.07;;
4563;SDS011;2294;51.818;8.484;2023-04-06T00:56:56;9.77;;;6.03;;
4563;SDS011;2294;51.818;8.484;2023-04-06T00:59:23;8.00;;;5.83;;
4563;SDS011;2294;51.818;8.484;2023-04-06T01:01:51;7.53;;;5.93;;
4563;SDS011;2294;51.818;8.484;2023-04-06T01:04:18;10.03;;;5.50;;
4563;SDS011;2294;51.818;8.484;2023-04-06T01:06:47;7.37;;;6.13;;
4563;SDS011;2294;51.818;8.484;2023-04-06T01:09:15;9.43;;;6.10;;
4563;SDS011;2294;51.818;8.484;2023-04-06T01:11:43;8.90;;;6.60;;
4563;SDS011;2294;51.818;8.484;2023-04-06T01:14:10;10.87;;;6.30;;
4563;SDS011;2294;51.818;8.484;2023-04-06T01:16:37;13.10;;;7.17;;
4563;SDS011;2294;51.818;8.484;2023-04-06T01:19:07;10.00;;;6.57;;
4563;SDS011;2294;51.818;8.484;2023-04-06T01:21:35;12.03;;;6.77;;
4563;SDS011;2294;51.818;8.484;2023-04-06T01:24:03;11.27;;;6.77;;
4563;SDS011;2294;51.818;8.484;2023-04-06T01:26:31;8.43;;;5.87;;
4563;SDS011;2294;51.818;8.484;2023-04-06T01:28:58;11.60;;;7.10;;
4563;SDS011;2294;51.818;8.484;2023-04-06T01:31:25;7.80;;;6.10;;
4563;SDS011;2294;51.818;8.484;2023-04-06T01:33:52;7.97;;;6.20;;
4563;SDS011;2294;51.818;8.484;2023-04-06T01:36:20;9.77;;;6.70;;
4563;SDS011;2294;51.818;8.484;2023-04-06T01:38:47;12.50;;;7.60;;
4563;SDS011;2294;51.818;8.484;2023-04-06T01:41:16;8.30;;;6.70;;
4563;SDS011;2294;51.818;8.484;2023-04-06T01:43:43;12.30;;;6.60;;
4563;SDS011;2294;51.818;8.484;2023-04-06T01:46:10;7.60;;;5.80;;
4563;SDS011;2294;51.818;8.484;2023-04-06T01:48:38;11.33;;;6.43;;
4563;SDS011;2294;51.818;8.484;2023-04-06T01:51:04;10.50;;;6.00;;
4563;SDS011;2294;51.818;8.484;2023-04-06T01:53:31;12.20;;;6.47;;
4563;SDS011;2294;51.818;8.484;2023-04-06T01:55:58;9.50;;;6.30;;
4563;SDS011;2294;51.818;8.484;2023-04-06T01:58:27;9.27;;;5.90;;
4563;SDS011;2294;51.818;8.484;2023-04-06T02:00:54;8.30;;;6.10;;
4563;SDS011;2294;51.818;8.484;2023-04-06T02:03:21;10.17;;;6.67;;
4563;SDS011;2294;51.818;8.484;2023-04-06T02:05:48;9.83;;;6.60;;
4563;SDS011;2294;51.818;8.484;2023-04-06T02:08:15;9.40;;;6.67;;
4563;SDS011;2294;51.818;8.484;2023-04-06T02:10:42;8.10;;;6.13;;
4563;SDS011;2294;51.818;8.484;2023-04-06T02:13:09;10.60;;;7.00;;
4563;SDS011;2294;51.818;8.484;2023-04-06T02:15:38;8.67;;;5.73;;
4563;SDS011;2294;51.818;8.484;2023-04-06T02:18:05;9.10;;;7.10;;
4563;SDS011;2294;51.818;8.484;2023-04-06T02:20:32;10.20;;;6.37;;
4563;SDS011;2294;51.818;8.484;2023-04-06T02:22:59;9.53;;;6.80;;
4563;SDS011;2294;51.818;8.484;2023-04-06T02:25:26;7.83;;;6.13;;
4563;SDS011;2294;51.818;8.484;2023-04-06T02:27:53;10.97;;;7.90;;
4563;SDS011;2294;51.818;8.484;2023-04-06T02:30:21;11.20;;;6.53;;
4563;SDS011;2294;51.818;8.484;2023-04-06T02:32:49;8.57;;;6.20;;
4563;SDS011;2294;51.818;8.484;2023-04-06T02:35:16;10.97;;;6.63;;
4563;SDS011;2294;51.818;8.484;2023-04-06T02:37:43;7.17;;;6.00;;
4563;SDS011;2294;51.818;8.484;2023-04-06T02:40:10;9.07;;;6.47;;
4563;SDS011;2294;51.818;8.484;2023-04-06T02:42:37;10.33;;;6.20;;
4563;SDS011;2294;51.818;8.484;2023-04-06T02:45:04;9.77;;;6.20;;
4563;SDS011;2294;51.818;8.484;2023-04-06T02:47:32;10.43;;;7.40;;
4563;SDS011;2294;51.818;8.484;2023-04-06T02:50:01;9.87;;;6.33;;
4563;SDS011;2294;51.818;8.484;2023-04-06T02:52:28;8.90;;;6.23;;
4563;SDS011;2294;51.818;8.484;2023-04-06T02:54:55;11.00;;;6.93;;
4563;SDS011;2294;51.818;8.484;2023-04-06T02:57:22;11.30;;;6.27;;
4563;SDS011;2294;51.818;8.484;2023-04-06T02:59:49;18.13;;;6.67;;
4563;SDS011;2294;51.818;8.484;2023-04-06T03:02:15;9.60;;;6.43;;
4563;SDS011;2294;51.818;8.484;2023-04-06T03:04:43;10.53;;;6.90;;
4563;SDS011;2294;51.818;8.484;2023-04-06T03:07:12;11.60;;;6.70;;
4563;SDS011;2294;51.818;8.484;2023-04-06T03:09:39;6.80;;;5.90;;
4563;SDS011;2294;51.818;8.484;2023-04-06T03:12:06;12.93;;;6.77;;
4563;SDS011;2294;51.818;8.484;2023-04-06T03:14:33;10.10;;;6.20;;
4563;SDS011;2294;51.818;8.484;2023-04-06T03:17:00;15.10;;;6.37;;
4563;SDS011;2294;51.818;8.484;2023-04-06T03:19:27;10.77;;;7.03;;
4563;SDS011;2294;51.818;8.484;2023-04-06T03:21:54;8.43;;;6.73;;
4563;SDS011;2294;51.818;8.484;2023-04-06T03:24:22;15.63;;;6.47;;
4563;SDS011;2294;51.818;8.484;2023-04-06T03:26:49;11.37;;;7.30;;
4563;SDS011;2294;51.818;8.484;2023-04-06T03:29:16;8.20;;;6.70;;
4563;SDS011;2294;51.818;8.484;2023-04-06T03:31:43;9.03;;;6.40;;
4563;SDS011;2294;51.818;8.484;2023-04-06T03:34:10;9.63;;;6.47;;
4563;SDS011;2294;51.818;8.484;2023-04-06T03:36:37;9.93;;;6.67;;
4563;SDS011;2294;51.818;8.484;2023-04-06T03:39:04;13.73;;;6.43;;
4563;SDS011;2294;51.818;8.484;2023-04-06T03:41:32;14.00;;;7.83;;
4563;SDS011;2294;51.818;8.484;2023-04-06T03:44:00;10.23;;;6.40;;
4563;SDS011;2294;51.818;8.484;2023-04-06T03:46:27;9.80;;;8.07;;
4563;SDS011;2294;51.818;8.484;2023-04-06T03:48:54;14.87;;;7.60;;
4563;SDS011;2294;51.818;8.484;2023-04-06T03:51:21;11.53;;;7.60;;
4563;SDS011;2294;51.818;8.484;2023-04-06T03:53:48;8.77;;;6.53;;
4563;SDS011;2294;51.818;8.484;2023-04-06T03:56:15;10.23;;;6.73;;
4563;SDS011;2294;51.818;8.484;2023-04-06T03:58:43;9.10;;;6.63;;
4563;SDS011;2294;51.818;8.484;2023-04-06T04:01:14;8.37;;;6.97;;
4563;SDS011;2294;51.818;8.484;2023-04-06T04:03:41;11.50;;;7.07;;
4563;SDS011;2294;51.818;8.484;2023-04-06T04:06:08;11.47;;;6.60;;
4563;SDS011;2294;51.818;8.484;2023-04-06T04:08:35;13.47;;;8.27;;
4563;SDS011;2294;51.818;8.484;2023-04-06T04:11:02;9.83;;;6.30;;
4563;SDS011;2294;51.818;8.484;2023-04-06T04:13:29;11.53;;;6.03;;
4563;SDS011;2294;51.818;8.484;2023-04-06T04:15:57;13.40;;;7.43;;
4563;SDS011;2294;51.818;8.484;2023-04-06T04:18:24;16.00;;;10.33;;
4563;SDS011;2294;51.818;8.484;2023-04-06T04:20:51;12.23;;;7.40;;
4563;SDS011;2294;51.818;8.484;2023-04-06T04:23:18;8.33;;;6.50;;
4563;SDS011;2294;51.818;8.484;2023-04-06T04:25:46;11.57;;;6.90;;
4563;SDS011;2294;51.818;8.484;2023-04-06T04:28:13;11.60;;;7.50;;
4563;SDS011;2294;51.818;8.484;2023-04-06T04:30:40;14.40;;;6.97;;
4563;SDS011;2294;51.818;8.484;2023-04-06T04:33:08;12.20;;;7.50;;
4563;SDS011;2294;51.818;8.484;2023-04-06T04:35:35;9.37;;;6.47;;
4563;SDS011;2294;51.818;8.484;2023-04-06T04:38:02;13.03;;;7.00;;
4563;SDS011;2294;51.818;8.484;2023-04-06T04:40:29;8.77;;;6.77;;
4563;SDS011;2294;51.818;8.484;2023-04-06T04:42:56;10.60;;;7.10;;
4563;SDS011;2294;51.818;8.484;2023-04-06T04:45:23;12.43;;;7.43;;
4563;SDS011;2294;51.818;8.484;2023-04-06T04:47:50;11.67;;;7.30;;
4563;SDS011;2294;51.818;8.484;2023-04-06T04:50:18;9.30;;;6.80;;
4563;SDS011;2294;51.818;8.484;2023-04-06T04:52:45;9.93;;;7.37;;
4563;SDS011;2294;51.818;8.484;2023-04-06T04:55:12;9.03;;;6.17;;
4563;SDS011;2294;51.818;8.484;2023-04-06T04:57:39;10.37;;;6.87;;
4563;SDS011;2294;51.818;8.484;2023-04-06T05:00:07;11.07;;;8.13;;
4563;SDS011;2294;51.818;8.484;2023-04-06T05:02:34;11.70;;;6.90;;
4563;SDS011;2294;51.818;8.484;2023-04-06T05:05:01;11.83;;;6.93;;
4563;SDS011;2294;51.818;8.484;2023-04-06T05:07:30;13.43;;;7.47;;
4563;SDS011;2294;51.818;8.484;2023-04-06T05:09:57;12.67;;;7.60;;
4563;SDS011;2294;51.818;8.484;2023-04-06T05:12:24;9.70;;;7.03;;
4563;SDS011;2294;51.818;8.484;2023-04-06T05:14:52;10.67;;;6.47;;
4563;SDS011;2294;51.818;8.484;2023-04-06T05:17:19;8.60;;;7.03;;
4563;SDS011;2294;51.818;8.484;2023-04-06T05:19:47;13.87;;;7.60;;
4563;SDS011;2294;51.818;8.484;2023-04-06T05:22:14;11.30;;;8.03;;
4563;SDS011;2294;51.818;8.484;2023-04-06T05:24:44;11.27;;;7.40;;
4563;SDS011;2294;51.818;8.484;2023-04-06T05:27:10;13.63;;;6.87;;
4563;SDS011;2294;51.818;8.484;2023-04-06T05:29:37;9.73;;;6.70;;
4563;SDS011;2294;51.818;8.484;2023-04-06T05:32:05;15.63;;;8.07;;
4563;SDS011;2294;51.818;8.484;2023-04-06T05:34:32;15.47;;;8.07;;
4563;SDS011;2294;51.818;8.484;2023-04-06T05:36:59;9.30;;;7.57;;
4563;SDS011;2294;51.818;8.484;2023-04-06T05:39:26;12.47;;;7.87;;
4563;SDS011;2294;51.818;8.484;2023-04-06T05:41:55;14.63;;;8.80;;
4563;SDS011;2294;51.818;8.484;2023-04-06T05:44:21;12.60;;;8.27;;
4563;SDS011;2294;51.818;8.484;2023-04-06T05:46:48;12.30;;;7.60;;
4563;SDS011;2294;51.818;8.484;2023-04-06T05:49:15;12.90;;;7.93;;
4563;SDS011;2294;51.818;8.484;2023-04-06T05:51:43;12.50;;;8.90;;
4563;SDS011;2294;51.818;8.484;2023-04-06T05:54:10;13.03;;;7.37;;
4563;SDS011;2294;51.818;8.484;2023-04-06T05:56:36;9.50;;;7.03;;
4563;SDS011;2294;51.818;8.484;2023-04-06T05:59:05;11.17;;;7.23;;
4563;SDS011;2294;51.818;8.484;2023-04-06T06:01:32;9.37;;;6.80;;
4563;SDS011;2294;51.818;8.484;2023-04-06T06:04:00;12.87;;;6.97;;
4563;SDS011;2294;51.818;8.484;2023-04-06T06:06:27;11.53;;;7.87;;
4563;SDS011;2294;51.818;8.484;2023-04-06T06:08:55;9.80;;;6.90;;
4563;SDS011;2294;51.818;8.484;2023-04-06T06:11:24;10.00;;;6.53;;
4563;SDS011;2294;51.818;8.484;2023-04-06T06:13:51;10.43;;;6.73;;
4563;SDS011;2294;51.818;8.484;2023-04-06T06:16:19;12.63;;;6.67;;
4563;SDS011;2294;51.818;8.484;2023-04-06T06:18:46;11.03;;;6.57;;
4563;SDS011;2294;51.818;8.484;2023-04-06T06:21:13;9.13;;;6.50;;
4563;SDS011;2294;51.818;8.484;2023-04-06T06:23:42;10.27;;;6.17;;
4563;SDS011;2294;51.818;8.484;2023-04-06T06:26:09;8.90;;;6.37;;
4563;SDS011;2294;51.818;8.484;2023-04-06T06:28:36;12.63;;;6.47;;
4563;SDS011;2294;51.818;8.484;2023-04-06T06:31:03;11.07;;;5.90;;
4563;SDS011;2294;51.818;8.484;2023-04-06T06:33:31;11.97;;;6.90;;
4563;SDS011;2294;51.818;8.484;2023-04-06T06:35:58;10.43;;;6.30;;
4563;SDS011;2294;51.818;8.484;2023-04-06T06:38:25;11.47;;;6.50;;
4563;SDS011;2294;51.818;8.484;2023-04-06T06:40:52;12.17;;;6.67;;
4563;SDS011;2294;51.818;8.484;2023-04-06T06:43:19;11.60;;;6.43;;
4563;SDS011;2294;51.818;8.484;2023-04-06T06:45:46;10.50;;;6.40;;
4563;SDS011;2294;51.818;8.484;2023-04-06T06:48:13;12.80;;;6.40;;
4563;SDS011;2294;51.818;8.484;2023-04-06T06:50:42;31.10;;;16.57;;
4563;SDS011;2294;51.818;8.484;2023-04-06T06:53:09;27.83;;;14.43;;
4563;SDS011;2294;51.818;8.484;2023-04-06T06:55:36;14.77;;;8.20;;
4563;SDS011;2294;51.818;8.484;2023-04-06T06:58:03;15.07;;;8.10;;
4563;SDS011;2294;51.818;8.484;2023-04-06T07:00:31;10.87;;;6.50;;
4563;SDS011;2294;51.818;8.484;2023-04-06T07:02:58;9.50;;;6.20;;
4563;SDS011;2294;51.818;8.484;2023-04-06T07:05:25;6.37;;;5.00;;
4563;SDS011;2294;51.818;8.484;2023-04-06T07:07:53;11.80;;;6.30;;
4563;SDS011;2294;51.818;8.484;2023-04-06T07:10:20;7.47;;;5.63;;
4563;SDS011;2294;51.818;8.484;2023-04-06T07:12:47;12.30;;;5.33;;
4563;SDS011;2294;51.818;8.484;2023-04-06T07:15:15;9.87;;;5.90;;
4563;SDS011;2294;51.818;8.484;2023-04-06T07:17:42;11.00;;;6.03;;
4563;SDS011;2294;51.818;8.484;2023-04-06T07:20:10;6.80;;;5.07;;
4563;SDS011;2294;51.818;8.484;2023-04-06T07:22:37;8.90;;;6.50;;
4563;SDS011;2294;51.818;8.484;2023-04-06T07:25:07;7.80;;;5.13;;
4563;SDS011;2294;51.818;8.484;2023-04-06T07:27:34;14.53;;;6.70;;
4563;SDS011;2294;51.818;8.484;2023-04-06T07:30:01;9.43;;;6.30;;
4563;SDS011;2294;51.818;8.484;2023-04-06T07:32:29;12.80;;;6.53;;
4563;SDS011;2294;51.818;8.484;2023-04-06T07:34:56;15.03;;;10.00;;
4563;SDS011;2294;51.818;8.484;2023-04-06T07:37:23;19.23;;;13.07;;
4563;SDS011;2294;51.818;8.484;2023-04-06T07:39:50;13.47;;;6.60;;
4563;SDS011;2294;51.818;8.484;2023-04-06T07:42:18;13.10;;;7.30;;
4563;SDS011;2294;51.818;8.484;2023-04-06T07:44:45;9.83;;;5.70;;
4563;SDS011;2294;51.818;8.484;2023-04-06T07:47:12;10.67;;;6.17;;
4563;SDS011;2294;51.818;8.484;2023-04-06T07:49:39;10.47;;;5.90;;
4563;SDS011;2294;51.818;8.484;2023-04-06T07:52:06;11.13;;;5.90;;
4563;SDS011;2294;51.818;8.484;2023-04-06T07:54:33;9.20;;;5.53;;
4563;SDS011;2294;51.818;8.484;2023-04-06T07:57:00;7.97;;;5.43;;
4563;SDS011;2294;51.818;8.484;2023-04-06T07:59:28;12.93;;;5.70;;
4563;SDS011;2294;51.818;8.484;2023-04-06T08:01:55;12.30;;;5.77;;
4563;SDS011;2294;51.818;8.484;2023-04-06T08:04:22;13.90;;;6.00;;
4563;SDS011;2294;51.818;8.484;2023-04-06T08:06:49;10.90;;;5.83;;
4563;SDS011;2294;51.818;8.484;2023-04-06T08:09:16;10.23;;;5.40;;
4563;SDS011;2294;51.818;8.484;2023-04-06T08:11:43;8.60;;;5.60;;
4563;SDS011;2294;51.818;8.484;2023-04-06T08:14:11;9.87;;;6.00;;
4563;SDS011;2294;51.818;8.484;2023-04-06T08:16:39;8.70;;;5.37;;
4563;SDS011;2294;51.818;8.484;2023-04-06T08:19:06;6.05;;;4.60;;
4563;SDS011;2294;51.818;8.484;2023-04-06T08:21:34;7.50;;;5.57;;
4563;SDS011;2294;51.818;8.484;2023-04-06T08:24:01;12.40;;;5.80;;
4563;SDS011;2294;51.818;8.484;2023-04-06T08:26:28;7.63;;;5.20;;
4563;SDS011;2294;51.818;8.484;2023-04-06T08:28:55;10.60;;;5.30;;
4563;SDS011;2294;51.818;8.484;2023-04-06T08:31:22;6.33;;;5.10;;
4563;SDS011;2294;51.818;8.484;2023-04-06T08:33:51;6.30;;;4.93;;
4563;SDS011;2294;51.818;8.484;2023-04-06T08:36:18;6.83;;;5.33;;
4563;SDS011;2294;51.818;8.484;2023-04-06T08:38:47;7.50;;;5.10;;
4563;SDS011;2294;51.818;8.484;2023-04-06T08:41:15;11.13;;;4.90;;
4563;SDS011;2294;51.818;8.484;2023-04-06T08:43:43;12.80;;;6.73;;
4563;SDS011;2294;51.818;8.484;2023-04-06T08:46:12;12.83;;;6.77;;
4563;SDS011;2294;51.818;8.484;2023-04-06T08:48:40;8.47;;;5.17;;
4563;SDS011;2294;51.818;8.484;2023-04-06T08:51:09;9.30;;;5.23;;
4563;SDS011;2294;51.818;8.484;2023-04-06T08:53:38;12.50;;;7.37;;
4563;SDS011;2294;51.818;8.484;2023-04-06T08:56:05;9.80;;;5.20;;
4563;SDS011;2294;51.818;8.484;2023-04-06T08:58:34;15.37;;;6.43;;
4563;SDS011;2294;51.818;8.484;2023-04-06T09:01:02;6.43;;;4.90;;
4563;SDS011;2294;51.818;8.484;2023-04-06T09:03:33;7.97;;;6.03;;
4563;SDS011;2294;51.818;8.484;2023-04-06T09:06:03;7.87;;;5.40;;
4563;SDS011;2294;51.818;8.484;2023-04-06T09:08:32;13.30;;;6.17;;
4563;SDS011;2294;51.818;8.484;2023-04-06T09:11:00;9.37;;;6.10;;
4563;SDS011;2294;51.818;8.484;2023-04-06T09:13:27;9.83;;;5.70;;
4563;SDS011;2294;51.818;8.484;2023-04-06T09:15:58;9.67;;;5.87;;
4563;SDS011;2294;51.818;8.484;2023-04-06T09:18:28;12.30;;;6.63;;
4563;SDS011;2294;51.818;8.484;2023-04-06T09:20:57;15.40;;;6.53;;
4563;SDS011;2294;51.818;8.484;2023-04-06T09:23:24;15.70;;;8.40;;
4563;SDS011;2294;51.818;8.484;2023-04-06T09:25:53;13.53;;;6.30;;
4563;SDS011;2294;51.818;8.484;2023-04-06T09:28:43;11.03;;;6.43;;
4563;SDS011;2294;51.818;8.484;2023-04-06T09:31:11;10.83;;;6.97;;
4563;SDS011;2294;51.818;8.484;2023-04-06T09:33:39;13.93;;;7.10;;
4563;SDS011;2294;51.818;8.484;2023-04-06T09:36:07;12.33;;;7.07;;
4563;SDS011;2294;51.818;8.484;2023-04-06T09:38:36;14.13;;;7.80;;
4563;SDS011;2294;51.818;8.484;2023-04-06T09:41:05;10.87;;;6.93;;
4563;SDS011;2294;51.818;8.484;2023-04-06T09:43:32;11.17;;;6.50;;
4563;SDS011;2294;51.818;8.484;2023-04-06T09:46:00;12.50;;;6.20;;
4563;SDS011;2294;51.818;8.484;2023-04-06T09:48:29;17.53;;;9.67;;
4563;SDS011;2294;51.818;8.484;2023-04-06T09:51:01;11.53;;;7.63;;
4563;SDS011;2294;51.818;8.484;2023-04-06T09:53:30;11.33;;;6.63;;
4563;SDS011;2294;51.818;8.484;2023-04-06T09:56:02;13.10;;;7.60;;
4563;SDS011;2294;51.818;8.484;2023-04-06T09:58:33;16.67;;;7.60;;
4563;SDS011;2294;51.818;8.484;2023-04-06T10:01:05;13.03;;;7.10;;
4563;SDS011;2294;51.818;8.484;2023-04-06T10:03:38;15.60;;;8.47;;
4563;SDS011;2294;51.818;8.484;2023-04-06T10:06:11;13.93;;;7.80;;
4563;SDS011;2294;51.818;8.484;2023-04-06T10:08:41;11.53;;;7.50;;
4563;SDS011;2294;51.818;8.484;2023-04-06T10:11:11;11.13;;;6.73;;
4563;SDS011;2294;51.818;8.484;2023-04-06T10:13:40;15.77;;;7.33;;
4563;SDS011;2294;51.818;8.484;2023-04-06T10:16:10;17.80;;;9.53;;
4563;SDS011;2294;51.818;8.484;2023-04-06T10:18:38;15.40;;;8.13;;
4563;SDS011;2294;51.818;8.484;2023-04-06T10:21:11;15.53;;;8.67;;
4563;SDS011;2294;51.818;8.484;2023-04-06T10:23:41;13.23;;;7.43;;
4563;SDS011;2294;51.818;8.484;2023-04-06T10:26:13;16.20;;;8.77;;
4563;SDS011;2294;51.818;8.484;2023-04-06T10:28:43;13.17;;;7.73;;
4563;SDS011;2294;51.818;8.484;2023-04-06T10:31:12;14.73;;;8.53;;
4563;SDS011;2294;51.818;8.484;2023-04-06T10:33:39;11.70;;;6.87;;
4563;SDS011;2294;51.818;8.484;2023-04-06T10:36:10;16.90;;;9.10;;
4563;SDS011;2294;51.818;8.484;2023-04-06T10:38:38;18.20;;;8.70;;
4563;SDS011;2294;51.818;8.484;2023-04-06T10:41:05;35.20;;;16.50;;
4563;SDS011;2294;51.818;8.484;2023-04-06T10:43:33;18.33;;;8.93;;
4563;SDS011;2294;51.818;8.484;2023-04-06T10:46:04;13.23;;;8.10;;
4563;SDS011;2294;51.818;8.484;2023-04-06T10:48:38;14.40;;;8.10;;
4563;SDS011;2294;51.818;8.484;2023-04-06T10:51:09;11.67;;;7.37;;
4563;SDS011;2294;51.818;8.484;2023-04-06T10:53:37;12.97;;;6.80;;
4563;SDS011;2294;51.818;8.484;2023-04-06T10:56:09;16.67;;;7.27;;
4563;SDS011;2294;51.818;8.484;2023-04-06T10:58:37;15.30;;;8.50;;
4563;SDS011;2294;51.818;8.484;2023-04-06T11:01:05;11.03;;;7.50;;
4563;SDS011;2294;51.818;8.484;2023-04-06T11:03:36;12.93;;;7.50;;
4563;SDS011;2294;51.818;8.484;2023-04-06T11:06:10;12.30;;;7.50;;
4563;SDS011;2294;51.818;8.484;2023-04-06T11:08:37;12.63;;;8.00;;
4563;SDS011;2294;51.818;8.484;2023-04-06T11:11:05;20.47;;;9.37;;
4563;SDS011;2294;51.818;8.484;2023-04-06T11:13:37;17.27;;;7.23;;
4563;SDS011;2294;51.818;8.484;2023-04-06T11:16:06;15.83;;;9.70;;
4563;SDS011;2294;51.818;8.484;2023-04-06T11:18:38;15.67;;;8.40;;
4563;SDS011;2294;51.818;8.484;2023-04-06T11:21:12;16.03;;;8.97;;
4563;SDS011;2294;51.818;8.484;2023-04-06T11:23:39;14.20;;;7.77;;
4563;SDS011;2294;51.818;8.484;2023-04-06T11:26:09;13.23;;;7.57;;
4563;SDS011;2294;51.818;8.484;2023-04-06T11:28:37;11.83;;;7.37;;
4563;SDS011;2294;51.818;8.484;2023-04-06T11:31:07;15.47;;;8.10;;
4563;SDS011;2294;51.818;8.484;2023-04-06T11:33:35;12.87;;;7.63;;
4563;SDS011;2294;51.818;8.484;2023-04-06T11:36:03;13.27;;;8.07;;
4563;SDS011;2294;51.818;8.484;2023-04-06T11:38:30;11.53;;;8.07;;
4563;SDS011;2294;51.818;8.484;2023-04-06T11:40:57;12.83;;;8.03;;
4563;SDS011;2294;51.818;8.484;2023-04-06T11:43:28;12.07;;;8.13;;
4563;SDS011;2294;51.818;8.484;2023-04-06T11:45:59;14.83;;;7.57;;
4563;SDS011;2294;51.818;8.484;2023-04-06T11:48:29;13.17;;;7.73;;
4563;SDS011;2294;51.818;8.484;2023-04-06T11:50:57;13.07;;;7.50;;
4563;SDS011;2294;51.818;8.484;2023-04-06T11:53:26;20.37;;;7.47;;
4563;SDS011;2294;51.818;8.484;2023-04-06T11:55:53;13.70;;;7.93;;
4563;SDS011;2294;51.818;8.484;2023-04-06T11:58:20;14.23;;;6.57;;
4563;SDS011;2294;51.818;8.484;2023-04-06T12:00:47;11.67;;;7.13;;
4563;SDS011;2294;51.818;8.484;2023-04-06T12:03:14;15.73;;;8.50;;
4563;SDS011;2294;51.818;8.484;2023-04-06T12:05:43;10.57;;;6.93;;
4563;SDS011;2294;51.818;8.484;2023-04-06T12:08:10;18.20;;;7.60;;
4563;SDS011;2294;51.818;8.484;2023-04-06T12:10:37;16.07;;;8.20;;
4563;SDS011;2294;51.818;8.484;2023-04-06T12:13:04;15.63;;;7.77;;
4563;SDS011;2294;51.818;8.484;2023-04-06T12:15:31;11.60;;;8.03;;
4563;SDS011;2294;51.818;8.484;2023-04-06T12:17:58;16.50;;;7.70;;
4563;SDS011;2294;51.818;8.484;2023-04-06T12:20:25;11.43;;;6.33;;
4563;SDS011;2294;51.818;8.484;2023-04-06T12:22:53;11.10;;;6.87;;
4563;SDS011;2294;51.818;8.484;2023-04-06T12:25:20;18.47;;;8.20;;
4563;SDS011;2294;51.818;8.484;2023-04-06T12:27:47;13.43;;;6.80;;
4563;SDS011;2294;51.818;8.484;2023-04-06T12:30:15;12.27;;;7.20;;
4563;SDS011;2294;51.818;8.484;2023-04-06T12:32:42;13.77;;;8.13;;
4563;SDS011;2294;51.818;8.484;2023-04-06T12:35:09;13.03;;;7.13;;
4563;SDS011;2294;51.818;8.484;2023-04-06T12:37:37;9.57;;;6.40;;
4563;SDS011;2294;51.818;8.484;2023-04-06T12:40:06;12.10;;;7.50;;
4563;SDS011;2294;51.818;8.484;2023-04-06T12:42:35;12.03;;;7.67;;
4563;SDS011;2294;51.818;8.484;2023-04-06T12:45:02;13.03;;;6.80;;
4563;SDS011;2294;51.818;8.484;2023-04-06T12:47:30;12.53;;;6.43;;
4563;SDS011;2294;51.818;8.484;2023-04-06T12:49:57;9.83;;;6.60;;
4563;SDS011;2294;51.818;8.484;2023-04-06T12:52:24;11.90;;;7.57;;
4563;SDS011;2294;51.818;8.484;2023-04-06T12:54:52;12.97;;;8.40;;
4563;SDS011;2294;51.818;8.484;2023-04-06T12:57:20;13.73;;;8.03;;
4563;SDS011;2294;51.818;8.484;2023-04-06T12:59:47;10.53;;;6.70;;
4563;SDS011;2294;51.818;8.484;2023-04-06T13:02:15;14.83;;;7.80;;
4563;SDS011;2294;51.818;8.484;2023-04-06T13:04:42;23.40;;;8.30;;
4563;SDS011;2294;51.818;8.484;2023-04-06T13:07:09;16.67;;;9.20;;
4563;SDS011;2294;51.818;8.484;2023-04-06T13:09:36;15.37;;;8.50;;
4563;SDS011;2294;51.818;8.484;2023-04-06T13:12:03;14.07;;;9.80;;
4563;SDS011;2294;51.818;8.484;2023-04-06T13:14:31;17.27;;;8.27;;
4563;SDS011;2294;51.818;8.484;2023-04-06T13:16:58;16.00;;;9.90;;
4563;SDS011;2294;51.818;8.484;2023-04-06T13:19:25;15.97;;;9.40;;
4563;SDS011;2294;51.818;8.484;2023-04-06T13:21:52;18.10;;;9.50;;
4563;SDS011;2294;51.818;8.484;2023-04-06T13:24:19;17.50;;;10.57;;
4563;SDS011;2294;51.818;8.484;2023-04-06T13:26:46;26.27;;;10.17;;
4563;SDS011;2294;51.818;8.484;2023-04-06T13:29:13;17.57;;;9.90;;
4563;SDS011;2294;51.818;8.484;2023-04-06T13:31:42;26.63;;;10.43;;
4563;SDS011;2294;51.818;8.484;2023-04-06T13:34:09;19.43;;;11.10;;
4563;SDS011;2294;51.818;8.484;2023-04-06T13:36:36;16.97;;;10.00;;
4563;SDS011;2294;51.818;8.484;2023-04-06T13:39:05;21.43;;;12.10;;
4563;SDS011;2294;51.818;8.484;2023-04-06T13:41:33;21.97;;;11.30;;
4563;SDS011;2294;51.818;8.484;2023-04-06T13:44:00;15.90;;;9.60;;
4563;SDS011;2294;51.818;8.484;2023-04-06T13:46:27;29.03;;;13.60;;
4563;SDS011;2294;51.818;8.484;2023-04-06T13:48:55;23.00;;;10.90;;
4563;SDS011;2294;51.818;8.484;2023-04-06T13:51:22;19.30;;;11.30;;
4563;SDS011;2294;51.818;8.484;2023-04-06T13:53:49;19.07;;;10.50;;
4563;SDS011;2294;51.818;8.484;2023-04-06T13:56:17;25.77;;;11.60;;
4563;SDS011;2294;51.818;8.484;2023-04-06T13:58:44;30.30;;;13.73;;
4563;SDS011;2294;51.818;8.484;2023-04-06T14:01:11;31.97;;;13.63;;
4563;SDS011;2294;51.818;8.484;2023-04-06T14:03:38;17.70;;;9.23;;
4563;SDS011;2294;51.818;8.484;2023-04-06T14:06:11;15.53;;;10.03;;
4563;SDS011;2294;51.818;8.484;2023-04-06T14:08:38;19.40;;;10.57;;
4563;SDS011;2294;51.818;8.484;2023-04-06T14:11:06;17.60;;;10.30;;
4563;SDS011;2294;51.818;8.484;2023-04-06T14:13:37;17.13;;;9.23;;
4563;SDS011;2294;51.818;8.484;2023-04-06T14:16:04;16.90;;;10.03;;
4563;SDS011;2294;51.818;8.484;2023-04-06T14:18:31;14.97;;;8.73;;
4563;SDS011;2294;51.818;8.484;2023-04-06T14:20:59;14.97;;;8.73;;
4563;SDS011;2294;51.818;8.484;2023-04-06T14:23:28;21.03;;;9.97;;
4563;SDS011;2294;51.818;8.484;2023-04-06T14:26:02;13.93;;;9.30;;
4563;SDS011;2294;51.818;8.484;2023-04-06T14:28:30;18.07;;;9.80;;
4563;SDS011;2294;51.818;8.484;2023-04-06T14:30:58;14.97;;;8.87;;
4563;SDS011;2294;51.818;8.484;2023-04-06T14:33:25;11.57;;;7.47;;
4563;SDS011;2294;51.818;8.484;2023-04-06T14:35:52;14.43;;;9.20;;
4563;SDS011;2294;51.818;8.484;2023-04-06T14:38:19;14.20;;;9.27;;
4563;SDS011;2294;51.818;8.484;2023-04-06T14:40:47;15.30;;;8.80;;
4563;SDS011;2294;51.818;8.484;2023-04-06T14:43:15;14.80;;;9.80;;
4563;SDS011;2294;51.818;8.484;2023-04-06T14:45:41;13.57;;;9.00;;
4563;SDS011;2294;51.818;8.484;2023-04-06T14:48:08;14.50;;;8.90;;
4563;SDS011;2294;51.818;8.484;2023-04-06T14:50:37;14.90;;;9.07;;
4563;SDS011;2294;51.818;8.484;2023-04-06T14:53:04;12.20;;;7.97;;
4563;SDS011;2294;51.818;8.484;2023-04-06T14:55:31;20.37;;;10.07;;
4563;SDS011;2294;51.818;8.484;2023-04-06T14:58:00;20.80;;;11.20;;
4563;SDS011;2294;51.818;8.484;2023-04-06T15:00:27;16.27;;;10.33;;
4563;SDS011;2294;51.818;8.484;2023-04-06T15:02:54;11.93;;;7.60;;
4563;SDS011;2294;51.818;8.484;2023-04-06T15:05:21;11.47;;;7.77;;
4563;SDS011;2294;51.818;8.484;2023-04-06T15:07:48;12.73;;;7.80;;